PWSweather.com
Personal Weather Stations
Station Observations
RIORANCHO
Corrales Heights, Rio Rancho, NM 87124

Corrales HeightsRio Rancho, NM 87124

Lat: 35.241928, Lon: -106.647095

Elevation: 5297

Station Type: Davis Vantage Pro 2 Plus

http://www.weatherriorancho.com

High Low Average
Temperature 57.7°F14.3°C 33.4°F0.8°C 46.4°F8.0°C
Dew Point 33.0°F0.6°C 13.4°F-10.3°C 20.1°F-6.6°C
Winds 12.7 mph 20.4 kmh Calm Calm 4.0 mph W6.4 kmh W
Wind Gusts 21.9 mph35.2 kmh -- 7.0 mph11.3 kmh
Humidity 58% 27% 36%
Pressure 30.17 in1021.7 mb 29.95 in1014.2 mb -
Precipitation 0.00 in0.0 mm - -
Hour Temp Dew Point Humidity Winds Wind Gusts Pressure Precip Precip Rate Daily Precip Total
12:00 AM 40.8°F4.9°C 11.7°F-11.3°C 30% Calm Calm -- 29.98 in1015.2 mb - 0.00 in0.0 mm 0.00 in0.0 mm
12:10 AM 40.4°F4.7°C 11.4°F-11.4°C 30% Calm Calm -- 29.98 in1015.2 mb - 0.00 in0.0 mm 0.00 in0.0 mm
12:20 AM 40.0°F4.4°C 11.8°F-11.2°C 31% Calm Calm -- 29.98 in1015.2 mb - 0.00 in0.0 mm 0.00 in0.0 mm
12:30 AM 41.7°F5.4°C 14.6°F-9.7°C 33% Calm Calm -- 29.98 in1015.2 mb - 0.00 in0.0 mm 0.00 in0.0 mm
12:40 AM 43.2°F6.2°C 13.8°F-10.1°C 30% Calm Calm 1.2 mph1.9 kmh 29.98 in1015.2 mb - 0.00 in0.0 mm 0.00 in0.0 mm
12:50 AM 43.2°F6.2°C 13.8°F-10.1°C 30% Calm Calm -- 29.97 in1014.9 mb - 0.00 in0.0 mm 0.00 in0.0 mm
01:00 AM 42.8°F6.0°C 13.5°F-10.3°C 30% Calm Calm -- 29.97 in1014.9 mb - 0.00 in0.0 mm 0.00 in0.0 mm
01:10 AM 42.5°F5.8°C 13.9°F-10.1°C 31% Calm Calm -- 29.97 in1014.9 mb - 0.00 in0.0 mm 0.00 in0.0 mm
01:20 AM 42.7°F5.9°C 14.1°F-9.9°C 31% Calm Calm 1.2 mph1.9 kmh 29.97 in1014.9 mb - 0.00 in0.0 mm 0.00 in0.0 mm
01:30 AM 42.9°F6.1°C 14.3°F-9.8°C 31% Calm Calm 2.3 mph3.7 kmh 29.97 in1014.9 mb - 0.00 in0.0 mm 0.00 in0.0 mm
01:40 AM 43.4°F6.3°C 14.0°F-10.0°C 30% 1.2 mph SW1.9 kmh SW 1.2 mph1.9 kmh 29.96 in1014.6 mb - 0.00 in0.0 mm 0.00 in0.0 mm
01:50 AM 43.7°F6.5°C 14.3°F-9.8°C 30% Calm Calm 1.2 mph1.9 kmh 29.96 in1014.6 mb - 0.00 in0.0 mm 0.00 in0.0 mm
02:00 AM 44.0°F6.7°C 14.5°F-9.7°C 30% Calm Calm -- 29.96 in1014.6 mb - 0.00 in0.0 mm 0.00 in0.0 mm
02:10 AM 42.9°F6.1°C 14.3°F-9.8°C 31% Calm Calm -- 29.96 in1014.6 mb - 0.00 in0.0 mm 0.00 in0.0 mm
02:20 AM 43.1°F6.2°C 14.5°F-9.7°C 31% 1.2 mph SW1.9 kmh SW 1.2 mph1.9 kmh 29.96 in1014.6 mb - 0.00 in0.0 mm 0.00 in0.0 mm
02:30 AM 43.0°F6.1°C 13.6°F-10.2°C 30% Calm Calm -- 29.96 in1014.6 mb - 0.00 in0.0 mm 0.00 in0.0 mm
02:40 AM 42.7°F5.9°C 14.1°F-9.9°C 31% 3.5 mph SW5.6 kmh SW 6.9 mph11.1 kmh 29.96 in1014.6 mb - 0.00 in0.0 mm 0.00 in0.0 mm
02:50 AM 42.3°F5.7°C 13.7°F-10.2°C 31% 2.3 mph SW3.7 kmh SW 4.6 mph7.4 kmh 29.96 in1014.6 mb - 0.00 in0.0 mm 0.00 in0.0 mm
03:00 AM 42.3°F5.7°C 14.5°F-9.7°C 32% Calm Calm 2.3 mph3.7 kmh 29.96 in1014.6 mb - 0.00 in0.0 mm 0.00 in0.0 mm
03:10 AM 42.6°F5.9°C 14.8°F-9.6°C 32% Calm Calm 2.3 mph3.7 kmh 29.96 in1014.6 mb - 0.00 in0.0 mm 0.00 in0.0 mm
03:20 AM 42.1°F5.6°C 14.3°F-9.8°C 32% Calm Calm -- 29.96 in1014.6 mb - 0.00 in0.0 mm 0.00 in0.0 mm
03:30 AM 41.7°F5.4°C 14.0°F-10.0°C 32% Calm Calm -- 29.96 in1014.6 mb - 0.00 in0.0 mm 0.00 in0.0 mm
03:40 AM 41.3°F5.2°C 14.3°F-9.8°C 33% Calm Calm -- 29.95 in1014.2 mb - 0.00 in0.0 mm 0.00 in0.0 mm
03:50 AM 42.0°F5.6°C 14.9°F-9.5°C 33% Calm Calm 1.2 mph1.9 kmh 29.95 in1014.2 mb - 0.00 in0.0 mm 0.00 in0.0 mm
04:00 AM 43.0°F6.1°C 14.4°F-9.8°C 31% Calm Calm -- 29.95 in1014.2 mb - 0.00 in0.0 mm 0.00 in0.0 mm
04:10 AM 42.8°F6.0°C 14.9°F-9.5°C 32% Calm Calm -- 29.96 in1014.6 mb - 0.00 in0.0 mm 0.00 in0.0 mm
04:20 AM 42.6°F5.9°C 14.8°F-9.6°C 32% Calm Calm -- 29.96 in1014.6 mb - 0.00 in0.0 mm 0.00 in0.0 mm
04:30 AM 42.8°F6.0°C 14.9°F-9.5°C 32% Calm Calm 1.2 mph1.9 kmh 29.95 in1014.2 mb - 0.00 in0.0 mm 0.00 in0.0 mm
04:40 AM 44.0°F6.7°C 15.3°F-9.3°C 31% Calm Calm -- 29.95 in1014.2 mb - 0.00 in0.0 mm 0.00 in0.0 mm
04:50 AM 43.4°F6.3°C 14.7°F-9.6°C 31% Calm Calm 1.2 mph1.9 kmh 29.96 in1014.6 mb - 0.00 in0.0 mm 0.00 in0.0 mm
05:00 AM 43.2°F6.2°C 14.6°F-9.7°C 31% Calm Calm -- 29.96 in1014.6 mb - 0.00 in0.0 mm 0.00 in0.0 mm
05:10 AM 43.1°F6.2°C 14.5°F-9.7°C 31% Calm Calm 2.3 mph3.7 kmh 29.96 in1014.6 mb - 0.00 in0.0 mm 0.00 in0.0 mm
05:20 AM 42.2°F5.7°C 13.7°F-10.2°C 31% Calm Calm 1.2 mph1.9 kmh 29.96 in1014.6 mb - 0.00 in0.0 mm 0.00 in0.0 mm
05:30 AM 41.8°F5.4°C 14.1°F-9.9°C 32% Calm Calm 2.3 mph3.7 kmh 29.96 in1014.6 mb - 0.00 in0.0 mm 0.00 in0.0 mm
05:40 AM 42.1°F5.6°C 14.3°F-9.8°C 32% Calm Calm 2.3 mph3.7 kmh 29.96 in1014.6 mb - 0.00 in0.0 mm 0.00 in0.0 mm
05:50 AM 42.1°F5.6°C 14.4°F-9.8°C 32% 1.2 mph SW1.9 kmh SW 3.5 mph5.6 kmh 29.96 in1014.6 mb - 0.00 in0.0 mm 0.00 in0.0 mm
06:00 AM 41.9°F5.5°C 14.8°F-9.6°C 33% Calm Calm 1.2 mph1.9 kmh 29.96 in1014.6 mb - 0.00 in0.0 mm 0.00 in0.0 mm
06:10 AM 41.1°F5.1°C 14.2°F-9.9°C 33% Calm Calm -- 29.96 in1014.6 mb - 0.00 in0.0 mm 0.00 in0.0 mm
06:20 AM 40.7°F4.8°C 14.5°F-9.7°C 34% Calm Calm -- 29.96 in1014.6 mb - 0.00 in0.0 mm 0.00 in0.0 mm
06:30 AM 40.7°F4.8°C 14.5°F-9.7°C 34% Calm Calm 1.2 mph1.9 kmh 29.96 in1014.6 mb - 0.00 in0.0 mm 0.00 in0.0 mm
06:40 AM 40.5°F4.7°C 14.3°F-9.8°C 34% Calm Calm -- 29.96 in1014.6 mb - 0.00 in0.0 mm 0.00 in0.0 mm
06:50 AM 40.6°F4.8°C 14.4°F-9.8°C 34% Calm Calm -- 29.96 in1014.6 mb - 0.00 in0.0 mm 0.00 in0.0 mm
07:00 AM 40.4°F4.7°C 14.2°F-9.9°C 34% Calm Calm -- 29.97 in1014.9 mb - 0.00 in0.0 mm 0.00 in0.0 mm
07:10 AM 39.5°F4.2°C 13.4°F-10.3°C 34% Calm Calm -- 29.97 in1014.9 mb - 0.00 in0.0 mm 0.00 in0.0 mm
07:20 AM 38.4°F3.6°C 13.7°F-10.2°C 36% Calm Calm 2.3 mph3.7 kmh 29.97 in1014.9 mb - 0.00 in0.0 mm 0.00 in0.0 mm
07:30 AM 38.0°F3.3°C 13.4°F-10.3°C 36% Calm Calm -- 29.97 in1014.9 mb - 0.00 in0.0 mm 0.00 in0.0 mm
07:40 AM 37.5°F3.1°C 13.6°F-10.2°C 37% Calm Calm -- 29.97 in1014.9 mb - 0.00 in0.0 mm 0.00 in0.0 mm
07:50 AM 37.1°F2.8°C 13.8°F-10.1°C 38% Calm Calm -- 29.97 in1014.9 mb - 0.00 in0.0 mm 0.00 in0.0 mm
08:00 AM 36.0°F2.2°C 14.0°F-10.0°C 40% Calm Calm 1.2 mph1.9 kmh 29.98 in1015.2 mb - 0.00 in0.0 mm 0.00 in0.0 mm
08:10 AM 35.5°F1.9°C 14.6°F-9.7°C 42% Calm Calm -- 29.98 in1015.2 mb - 0.00 in0.0 mm 0.00 in0.0 mm
08:20 AM 34.8°F1.6°C 14.5°F-9.7°C 43% Calm Calm -- 29.98 in1015.2 mb - 0.00 in0.0 mm 0.00 in0.0 mm
08:30 AM 34.4°F1.3°C 14.2°F-9.9°C 43% Calm Calm -- 29.99 in1015.6 mb - 0.00 in0.0 mm 0.00 in0.0 mm
08:40 AM 35.0°F1.7°C 14.7°F-9.6°C 43% 1.2 mph N1.9 kmh N 4.6 mph7.4 kmh 29.99 in1015.6 mb - 0.00 in0.0 mm 0.00 in0.0 mm
08:50 AM 34.9°F1.6°C 19.0°F-7.2°C 52% 5.8 mph NNE9.3 kmh NNE 9.2 mph14.8 kmh 29.99 in1015.6 mb - 0.00 in0.0 mm 0.00 in0.0 mm
09:00 AM 33.7°F0.9°C 19.7°F-6.8°C 56% 2.3 mph N3.7 kmh N 3.5 mph5.6 kmh 29.99 in1015.6 mb - 0.00 in0.0 mm 0.00 in0.0 mm
09:10 AM 33.5°F0.8°C 19.9°F-6.7°C 57% Calm Calm -- 30.00 in1015.9 mb - 0.00 in0.0 mm 0.00 in0.0 mm
09:20 AM 33.4°F0.8°C 20.2°F-6.6°C 58% 1.2 mph NW1.9 kmh NW 3.5 mph5.6 kmh 30.00 in1015.9 mb - 0.00 in0.0 mm 0.00 in0.0 mm
09:30 AM 33.4°F0.8°C 19.4°F-7.0°C 56% 4.6 mph NW7.4 kmh NW 5.8 mph9.3 kmh 30.00 in1015.9 mb - 0.00 in0.0 mm 0.00 in0.0 mm
09:40 AM 33.7°F0.9°C 19.3°F-7.1°C 55% 1.2 mph NW1.9 kmh NW 3.5 mph5.6 kmh 30.00 in1015.9 mb - 0.00 in0.0 mm 0.00 in0.0 mm
09:50 AM 35.8°F2.1°C 20.4°F-6.4°C 53% Calm Calm -- 30.00 in1015.9 mb - 0.00 in0.0 mm 0.00 in0.0 mm
10:00 AM 37.5°F3.1°C 20.5°F-6.4°C 50% 1.2 mph NNW1.9 kmh NNW 3.5 mph5.6 kmh 30.00 in1015.9 mb - 0.00 in0.0 mm 0.00 in0.0 mm
10:10 AM 39.2°F4.0°C 21.1°F-6.1°C 48% 1.2 mph NNW1.9 kmh NNW 3.5 mph5.6 kmh 30.00 in1015.9 mb - 0.00 in0.0 mm 0.00 in0.0 mm
10:20 AM 40.3°F4.6°C 21.1°F-6.1°C 46% Calm Calm -- 30.00 in1015.9 mb - 0.00 in0.0 mm 0.00 in0.0 mm
10:30 AM 41.5°F5.3°C 21.7°F-5.7°C 45% Calm Calm -- 30.00 in1015.9 mb - 0.00 in0.0 mm 0.00 in0.0 mm
10:40 AM 43.1°F6.2°C 21.5°F-5.8°C 42% Calm Calm -- 30.00 in1015.9 mb - 0.00 in0.0 mm 0.00 in0.0 mm
10:50 AM 44.7°F7.1°C 21.3°F-5.9°C 39% Calm Calm -- 30.00 in1015.9 mb - 0.00 in0.0 mm 0.00 in0.0 mm
11:00 AM 46.5°F8.1°C 20.3°F-6.5°C 35% Calm Calm -- 30.00 in1015.9 mb - 0.00 in0.0 mm 0.00 in0.0 mm
11:10 AM 48.6°F9.2°C 20.7°F-6.3°C 33% Calm Calm -- 30.00 in1015.9 mb - 0.00 in0.0 mm 0.00 in0.0 mm
11:20 AM 49.6°F9.8°C 20.9°F-6.2°C 32% 4.6 mph N7.4 kmh N 4.6 mph7.4 kmh 30.02 in1016.6 mb - 0.00 in0.0 mm 0.00 in0.0 mm
11:30 AM 50.4°F10.2°C 20.1°F-6.6°C 30% Calm Calm -- 30.02 in1016.6 mb - 0.00 in0.0 mm 0.00 in0.0 mm
11:40 AM 52.0°F11.1°C 19.8°F-6.8°C 28% Calm Calm -- 30.02 in1016.6 mb - 0.00 in0.0 mm 0.00 in0.0 mm
11:50 AM 54.6°F12.6°C 21.2°F-6.0°C 27% 1.2 mph NW1.9 kmh NW 6.9 mph11.1 kmh 30.02 in1016.6 mb - 0.00 in0.0 mm 0.00 in0.0 mm
12:00 PM 56.0°F13.3°C 27.3°F-2.6°C 33% 5.8 mph WNW9.3 kmh WNW 11.5 mph18.5 kmh 30.02 in1016.6 mb - 0.00 in0.0 mm 0.00 in0.0 mm
12:10 PM 55.4°F13.0°C 28.2°F-2.1°C 35% 11.5 mph WNW18.5 kmh WNW 18.4 mph29.6 kmh 30.02 in1016.6 mb - 0.00 in0.0 mm 0.00 in0.0 mm
12:20 PM 54.3°F12.4°C 29.9°F-1.2°C 39% 9.2 mph NW14.8 kmh NW 19.6 mph31.5 kmh 30.02 in1016.6 mb - 0.00 in0.0 mm 0.00 in0.0 mm
12:30 PM 54.2°F12.3°C 30.4°F-0.9°C 40% 12.7 mph NW20.4 kmh NW 21.9 mph35.2 kmh 30.02 in1016.6 mb - 0.00 in0.0 mm 0.00 in0.0 mm
12:40 PM 54.8°F12.7°C 30.9°F-0.6°C 40% 11.5 mph WNW18.5 kmh WNW 16.1 mph25.9 kmh 30.02 in1016.6 mb - 0.00 in0.0 mm 0.00 in0.0 mm
12:50 PM 55.5°F13.1°C 31.5°F-0.3°C 40% 9.2 mph WNW14.8 kmh WNW 15.0 mph24.1 kmh 30.02 in1016.6 mb - 0.00 in0.0 mm 0.00 in0.0 mm
01:00 PM 55.8°F13.2°C 31.2°F-0.4°C 39% 2.3 mph NW3.7 kmh NW 5.8 mph9.3 kmh 30.02 in1016.6 mb - 0.00 in0.0 mm 0.00 in0.0 mm
01:10 PM 55.8°F13.2°C 31.2°F-0.4°C 39% 6.9 mph NW11.1 kmh NW 11.5 mph18.5 kmh 30.01 in1016.3 mb - 0.00 in0.0 mm 0.00 in0.0 mm
01:20 PM 53.8°F12.1°C 31.8°F-0.1°C 43% 4.6 mph NW7.4 kmh NW 11.5 mph18.5 kmh 30.01 in1016.3 mb - 0.00 in0.0 mm 0.00 in0.0 mm
01:30 PM 53.4°F11.9°C 32.0°F0.0°C 44% Calm Calm 1.2 mph1.9 kmh 30.01 in1016.3 mb - 0.00 in0.0 mm 0.00 in0.0 mm
01:40 PM 53.9°F12.2°C 33.0°F0.6°C 45% 3.5 mph WNW5.6 kmh WNW 4.6 mph7.4 kmh 30.00 in1015.9 mb - 0.00 in0.0 mm 0.00 in0.0 mm
01:50 PM 53.1°F11.7°C 31.8°F-0.1°C 44% 4.6 mph NW7.4 kmh NW 6.9 mph11.1 kmh 30.00 in1015.9 mb - 0.00 in0.0 mm 0.00 in0.0 mm
02:00 PM 52.7°F11.5°C 31.9°F-0.1°C 45% 4.6 mph NW7.4 kmh NW 10.4 mph16.7 kmh 30.00 in1015.9 mb - 0.00 in0.0 mm 0.00 in0.0 mm
02:10 PM 54.3°F12.4°C 31.7°F-0.2°C 42% 3.5 mph NW5.6 kmh NW 6.9 mph11.1 kmh 29.98 in1015.2 mb - 0.00 in0.0 mm 0.00 in0.0 mm
02:20 PM 55.7°F13.2°C 31.8°F-0.1°C 40% 5.8 mph NW9.3 kmh NW 6.9 mph11.1 kmh 29.98 in1015.2 mb - 0.00 in0.0 mm 0.00 in0.0 mm
02:30 PM 56.5°F13.6°C 30.6°F-0.8°C 37% 8.1 mph NW13.0 kmh NW 12.7 mph20.4 kmh 29.98 in1015.2 mb - 0.00 in0.0 mm 0.00 in0.0 mm
02:40 PM 57.7°F14.3°C 29.5°F-1.4°C 34% 9.2 mph WNW14.8 kmh WNW 11.5 mph18.5 kmh 29.97 in1014.9 mb - 0.00 in0.0 mm 0.00 in0.0 mm
02:50 PM 57.0°F13.9°C 28.1°F-2.2°C 33% 9.2 mph WNW14.8 kmh WNW 12.7 mph20.4 kmh 29.97 in1014.9 mb - 0.00 in0.0 mm 0.00 in0.0 mm
03:00 PM 56.0°F13.3°C 27.2°F-2.7°C 33% 10.4 mph WNW16.7 kmh WNW 11.5 mph18.5 kmh 29.96 in1014.6 mb - 0.00 in0.0 mm 0.00 in0.0 mm
03:10 PM 56.3°F13.5°C 29.0°F-1.7°C 35% 11.5 mph NW18.5 kmh NW 19.6 mph31.5 kmh 29.96 in1014.6 mb - 0.00 in0.0 mm 0.00 in0.0 mm
03:20 PM 55.7°F13.2°C 27.7°F-2.4°C 34% 8.1 mph NW13.0 kmh NW 15.0 mph24.1 kmh 29.96 in1014.6 mb - 0.00 in0.0 mm 0.00 in0.0 mm
03:30 PM 55.7°F13.2°C 27.0°F-2.8°C 33% 4.6 mph WNW7.4 kmh WNW 5.8 mph9.3 kmh 29.96 in1014.6 mb - 0.00 in0.0 mm 0.00 in0.0 mm
03:40 PM 56.1°F13.4°C 25.1°F-3.8°C 30% 11.5 mph WNW18.5 kmh WNW 20.7 mph33.3 kmh 29.96 in1014.6 mb - 0.00 in0.0 mm 0.00 in0.0 mm
03:50 PM 56.0°F13.3°C 25.0°F-3.9°C 30% 11.5 mph WNW18.5 kmh WNW 18.4 mph29.6 kmh 29.95 in1014.2 mb - 0.00 in0.0 mm 0.00 in0.0 mm
04:00 PM 56.2°F13.4°C 24.3°F-4.3°C 29% 11.5 mph WNW18.5 kmh WNW 18.4 mph29.6 kmh 29.96 in1014.6 mb - 0.00 in0.0 mm 0.00 in0.0 mm
04:10 PM 55.8°F13.2°C 24.8°F-4.0°C 30% 8.1 mph WNW13.0 kmh WNW 12.7 mph20.4 kmh 29.96 in1014.6 mb - 0.00 in0.0 mm 0.00 in0.0 mm
04:20 PM 55.7°F13.2°C 24.7°F-4.1°C 30% 10.4 mph W16.7 kmh W 17.3 mph27.8 kmh 29.96 in1014.6 mb - 0.00 in0.0 mm 0.00 in0.0 mm
04:30 PM 56.1°F13.4°C 25.1°F-3.8°C 30% 10.4 mph WNW16.7 kmh WNW 18.4 mph29.6 kmh 29.96 in1014.6 mb - 0.00 in0.0 mm 0.00 in0.0 mm
04:40 PM 55.8°F13.2°C 24.0°F-4.4°C 29% 10.4 mph WNW16.7 kmh WNW 17.3 mph27.8 kmh 29.97 in1014.9 mb - 0.00 in0.0 mm 0.00 in0.0 mm
04:50 PM 55.4°F13.0°C 22.8°F-5.1°C 28% 8.1 mph NW13.0 kmh NW 11.5 mph18.5 kmh 29.97 in1014.9 mb - 0.00 in0.0 mm 0.00 in0.0 mm
05:00 PM 55.0°F12.8°C 22.4°F-5.3°C 28% 10.4 mph WNW16.7 kmh WNW 12.7 mph20.4 kmh 29.97 in1014.9 mb - 0.00 in0.0 mm 0.00 in0.0 mm
05:10 PM 54.5°F12.5°C 22.9°F-5.1°C 29% 9.2 mph WNW14.8 kmh WNW 13.8 mph22.2 kmh 29.98 in1015.2 mb - 0.00 in0.0 mm 0.00 in0.0 mm
05:20 PM 54.4°F12.4°C 21.9°F-5.6°C 28% 9.2 mph NW14.8 kmh NW 16.1 mph25.9 kmh 29.98 in1015.2 mb - 0.00 in0.0 mm 0.00 in0.0 mm
05:30 PM 54.4°F12.4°C 21.9°F-5.6°C 28% 9.2 mph NW14.8 kmh NW 10.4 mph16.7 kmh 29.99 in1015.6 mb - 0.00 in0.0 mm 0.00 in0.0 mm
05:40 PM 54.2°F12.3°C 21.7°F-5.7°C 28% 5.8 mph NW9.3 kmh NW 10.4 mph16.7 kmh 29.99 in1015.6 mb - 0.00 in0.0 mm 0.00 in0.0 mm
05:50 PM 54.1°F12.3°C 21.7°F-5.7°C 28% 10.4 mph NW16.7 kmh NW 15.0 mph24.1 kmh 29.99 in1015.6 mb - 0.00 in0.0 mm 0.00 in0.0 mm
06:00 PM 53.8°F12.1°C 21.4°F-5.9°C 28% 8.1 mph NW13.0 kmh NW 15.0 mph24.1 kmh 29.99 in1015.6 mb - 0.00 in0.0 mm 0.00 in0.0 mm
06:10 PM 53.4°F11.9°C 21.1°F-6.1°C 28% 8.1 mph NW13.0 kmh NW 11.5 mph18.5 kmh 30.00 in1015.9 mb - 0.00 in0.0 mm 0.00 in0.0 mm
06:20 PM 53.0°F11.7°C 20.7°F-6.3°C 28% 8.1 mph NW13.0 kmh NW 15.0 mph24.1 kmh 30.00 in1015.9 mb - 0.00 in0.0 mm 0.00 in0.0 mm
06:30 PM 52.8°F11.6°C 19.7°F-6.8°C 27% 5.8 mph NW9.3 kmh NW 5.8 mph9.3 kmh 30.01 in1016.3 mb - 0.00 in0.0 mm 0.00 in0.0 mm
06:40 PM 52.7°F11.5°C 19.6°F-6.9°C 27% 4.6 mph NW7.4 kmh NW 11.5 mph18.5 kmh 30.02 in1016.6 mb - 0.00 in0.0 mm 0.00 in0.0 mm
06:50 PM 52.6°F11.4°C 19.5°F-6.9°C 27% 11.5 mph NW18.5 kmh NW 16.1 mph25.9 kmh 30.02 in1016.6 mb - 0.00 in0.0 mm 0.00 in0.0 mm
07:00 PM 52.4°F11.3°C 19.3°F-7.1°C 27% 10.4 mph NW16.7 kmh NW 15.0 mph24.1 kmh 30.02 in1016.6 mb - 0.00 in0.0 mm 0.00 in0.0 mm
07:10 PM 52.3°F11.3°C 19.3°F-7.1°C 27% 10.4 mph NW16.7 kmh NW 17.3 mph27.8 kmh 30.03 in1016.9 mb - 0.00 in0.0 mm 0.00 in0.0 mm
07:20 PM 52.0°F11.1°C 19.9°F-6.7°C 28% 4.6 mph WNW7.4 kmh WNW 6.9 mph11.1 kmh 30.03 in1016.9 mb - 0.00 in0.0 mm 0.00 in0.0 mm
07:30 PM 51.5°F10.8°C 20.3°F-6.5°C 29% 8.1 mph NW13.0 kmh NW 12.7 mph20.4 kmh 30.04 in1017.3 mb - 0.00 in0.0 mm 0.00 in0.0 mm
07:40 PM 51.1°F10.6°C 20.7°F-6.3°C 30% 10.4 mph WNW16.7 kmh WNW 17.3 mph27.8 kmh 30.04 in1017.3 mb - 0.00 in0.0 mm 0.00 in0.0 mm
07:50 PM 50.6°F10.3°C 20.3°F-6.5°C 30% 9.2 mph NW14.8 kmh NW 11.5 mph18.5 kmh 30.05 in1017.6 mb - 0.00 in0.0 mm 0.00 in0.0 mm
08:00 PM 50.2°F10.1°C 19.9°F-6.7°C 30% 8.1 mph NW13.0 kmh NW 11.5 mph18.5 kmh 30.05 in1017.6 mb - 0.00 in0.0 mm 0.00 in0.0 mm
08:10 PM 49.7°F9.8°C 19.5°F-6.9°C 30% 2.3 mph NW3.7 kmh NW 10.4 mph16.7 kmh 30.06 in1017.9 mb - 0.00 in0.0 mm 0.00 in0.0 mm
08:20 PM 49.2°F9.6°C 19.0°F-7.2°C 30% 4.6 mph NW7.4 kmh NW 6.9 mph11.1 kmh 30.05 in1017.6 mb - 0.00 in0.0 mm 0.00 in0.0 mm
08:30 PM 48.7°F9.3°C 18.6°F-7.4°C 30% Calm Calm 8.1 mph13.0 kmh 30.06 in1017.9 mb - 0.00 in0.0 mm 0.00 in0.0 mm
08:40 PM 48.4°F9.1°C 18.3°F-7.6°C 30% 4.6 mph NW7.4 kmh NW 10.4 mph16.7 kmh 30.07 in1018.3 mb - 0.00 in0.0 mm 0.00 in0.0 mm
08:50 PM 48.1°F8.9°C 18.1°F-7.7°C 30% Calm Calm 2.3 mph3.7 kmh 30.08 in1018.6 mb - 0.00 in0.0 mm 0.00 in0.0 mm
09:00 PM 47.7°F8.7°C 17.7°F-7.9°C 30% Calm Calm 3.5 mph5.6 kmh 30.07 in1018.3 mb - 0.00 in0.0 mm 0.00 in0.0 mm
09:10 PM 47.6°F8.7°C 19.2°F-7.1°C 32% 9.2 mph NW14.8 kmh NW 11.5 mph18.5 kmh 30.07 in1018.3 mb - 0.00 in0.0 mm 0.00 in0.0 mm
09:20 PM 47.6°F8.7°C 19.2°F-7.1°C 32% 4.6 mph NW7.4 kmh NW 8.1 mph13.0 kmh 30.09 in1019.0 mb - 0.00 in0.0 mm 0.00 in0.0 mm
09:30 PM 47.2°F8.4°C 18.8°F-7.3°C 32% 10.4 mph W16.7 kmh W 13.8 mph22.2 kmh 30.09 in1019.0 mb - 0.00 in0.0 mm 0.00 in0.0 mm
09:40 PM 46.8°F8.2°C 19.2°F-7.1°C 33% 4.6 mph NW7.4 kmh NW 8.1 mph13.0 kmh 30.10 in1019.3 mb - 0.00 in0.0 mm 0.00 in0.0 mm
09:50 PM 46.4°F8.0°C 18.8°F-7.3°C 33% 4.6 mph NW7.4 kmh NW 6.9 mph11.1 kmh 30.11 in1019.6 mb - 0.00 in0.0 mm 0.00 in0.0 mm
10:00 PM 46.2°F7.9°C 19.3°F-7.1°C 34% 5.8 mph NW9.3 kmh NW 18.4 mph29.6 kmh 30.12 in1020.0 mb - 0.00 in0.0 mm 0.00 in0.0 mm
10:10 PM 46.0°F7.8°C 19.1°F-7.2°C 34% 4.6 mph NW7.4 kmh NW 9.2 mph14.8 kmh 30.12 in1020.0 mb - 0.00 in0.0 mm 0.00 in0.0 mm
10:20 PM 45.4°F7.4°C 20.0°F-6.7°C 36% 6.9 mph NW11.1 kmh NW 10.4 mph16.7 kmh 30.13 in1020.3 mb - 0.00 in0.0 mm 0.00 in0.0 mm
10:30 PM 44.9°F7.2°C 20.2°F-6.6°C 37% 3.5 mph WNW5.6 kmh WNW 5.8 mph9.3 kmh 30.13 in1020.3 mb - 0.00 in0.0 mm 0.00 in0.0 mm
10:40 PM 44.3°F6.8°C 20.3°F-6.5°C 38% Calm Calm 3.5 mph5.6 kmh 30.14 in1020.7 mb - 0.00 in0.0 mm 0.00 in0.0 mm
10:50 PM 43.7°F6.5°C 20.9°F-6.2°C 40% 5.8 mph W9.3 kmh W 11.5 mph18.5 kmh 30.14 in1020.7 mb - 0.00 in0.0 mm 0.00 in0.0 mm
11:00 PM 43.1°F6.2°C 21.0°F-6.1°C 41% 3.5 mph WNW5.6 kmh WNW 10.4 mph16.7 kmh 30.14 in1020.7 mb - 0.00 in0.0 mm 0.00 in0.0 mm
11:10 PM 42.8°F6.0°C 21.3°F-5.9°C 42% 3.5 mph W5.6 kmh W 8.1 mph13.0 kmh 30.14 in1020.7 mb - 0.00 in0.0 mm 0.00 in0.0 mm
11:20 PM 42.4°F5.8°C 20.9°F-6.2°C 42% 3.5 mph W5.6 kmh W 10.4 mph16.7 kmh 30.14 in1020.7 mb - 0.00 in0.0 mm 0.00 in0.0 mm
11:30 PM 42.1°F5.6°C 21.2°F-6.0°C 43% 3.5 mph WNW5.6 kmh WNW 8.1 mph13.0 kmh 30.15 in1021.0 mb - 0.00 in0.0 mm 0.00 in0.0 mm
11:40 PM 41.9°F5.5°C 21.0°F-6.1°C 43% 2.3 mph W3.7 kmh W 4.6 mph7.4 kmh 30.15 in1021.0 mb - 0.00 in0.0 mm 0.00 in0.0 mm
11:50 PM 41.4°F5.2°C 20.6°F-6.3°C 43% 1.2 mph WNW1.9 kmh WNW 3.5 mph5.6 kmh 30.15 in1021.0 mb - 0.00 in0.0 mm 0.00 in0.0 mm